首页
METAR-TAF:

METAR-TAF

机场 :

黃刀鎮, 西北特區, 加拿大

纬度: 62-28N, 经度: 114-27W, 海拔: 205米

当前天气观测

该预报发布于21分钟前的19:00 UTC
风速13节,风向东南,有时为20节阵风
温度 -1°C
湿度 86%
气压 1015 hPa
能見度: 24.1公里
阴天层高于1400英尺

METAR: CYZF 221900Z 13013G20KT 15SM OVC014 M01/M03 A2998 RMK SC8 SLP171

时间: 13:21 (19:21 UTC)

预报

该预报发布于1小时和37分钟前的17:44 UTC
预报有效从22日的 18点(UTC)到 23日的 18点(UTC)
风速15节,风向东南,有时为25节阵风
能見度: 10公里
散云层高于600英尺
阴天层高于4000英尺
短暂存在
从 22日的 18点(UTC)到 22日的 22点(UTC)
能見度: 3.2公里
阴天层高于200英尺
小雪, 轻雾
从 22日的 2200点(UTC)
风速12节,风向东南
能見度: 10公里
散云层高于25000英尺
从 23日的 0700点(UTC)
风速10节,风向
能見度: 10公里
少量云层高于400英尺
散云层高于12000英尺
几率 30%
从 23日的 09点(UTC)到 23日的 12点(UTC)
能見度: 1.6公里
阴天层高于400英尺
轻雾

TAF: CYZF 221744Z 2218/2318 13015G25KT P6SM SCT006 OVC040 TEMPO 2218/2222 2SM -SN BR OVC002 FM222200 13012KT P6SM SCT250 FM230700 10010KT P6SM FEW004 SCT120 PROB30 2309/2312 1SM BR OVC004 RMK NXT FCST BY 230000Z

超过4000个机场的气象观测和天气预报(METAR&TAF报告)。

可查询的气象台以黄色和红色小点在地图上表示。

将鼠标移到小点上方,可查看气象台名称。

然后点击查看天气观测和预报。

如需切换地图:点击带黑十字的绿色按钮放大地图;点击带横线的绿色按钮缩小地图;或者点击绿色箭头查看邻近地区的地图。


METAR-TAF: